Terminal Aerodrome Forecast
Issued by NWS Missoula, MT

Home | Current Version | Previous Version | Text Only | Print | Product List | Glossary On
Versions: 1 2 3 4 5 6 7 8 9 10 11 12 13 14 15 16 17 18 19 20 21 22
000
FTUS45 KMSO 301720
TAFGPI
TAF
KGPI 301720Z 3018/3118 00000KT 4SM BR OVC004
     FM302100 00000KT 6SM BR OVC015
     FM310600 00000KT 2SM BR VCSH OVC015=

USA.gov is the U.S. government's official web portal to all federal, state and local government web resources and services.